Time;durP1;ratioP1;P1;durP2;ratioP2;P2;SDS_P1;SDS_P2;PMS_P1;PMS_P2;Temp;Humidity;BMP_temperature;BMP_pressure;BME280_temperature;BME280_humidity;BME280_pressure;Samples;Min_cycle;Max_cycle;Signal;HPM_P1;HPM_P2
2023/05/15 00:00:25;;;;;;;24.58;21.90;;;;;;;15.90;61.09;101436.53;5010586;28;20040;-65
2023/05/15 00:02:50;;;;;;;26.17;22.52;;;;;;;15.92;60.85;101434.31;5011884;28;20108;-64
2023/05/15 00:05:15;;;;;;;26.63;23.10;;;;;;;15.87;61.12;101435.09;5011921;28;20469;-64
2023/05/15 00:07:41;;;;;;;25.75;23.02;;;;;;;15.86;61.13;101429.78;5028706;28;20129;-65
2023/05/15 00:10:07;;;;;;;27.23;23.15;;;;;;;15.78;61.17;101417.16;5011918;28;20154;-64
2023/05/15 00:12:33;;;;;;;24.65;22.05;;;;;;;15.78;61.06;101425.56;5011923;28;20056;-64
2023/05/15 00:14:58;;;;;;;27.60;23.15;;;;;;;15.72;61.31;101418.28;5012505;28;20042;-64
2023/05/15 00:17:24;;;;;;;26.77;23.20;;;;;;;15.71;61.33;101420.19;5014826;28;20104;-64
2023/05/15 00:19:50;;;;;;;27.58;23.80;;;;;;;15.63;61.60;101420.69;5012882;28;20247;-64
2023/05/15 00:22:15;;;;;;;27.15;23.10;;;;;;;15.67;61.34;101430.25;5013890;28;20099;-64
2023/05/15 00:24:40;;;;;;;28.35;23.98;;;;;;;15.66;61.51;101422.16;5011130;28;20492;-64
2023/05/15 00:27:06;;;;;;;32.42;23.02;;;;;;;15.63;61.31;101419.88;5023980;28;20035;-64
2023/05/15 00:29:31;;;;;;;28.20;23.45;;;;;;;15.64;61.55;101424.34;5028269;28;20054;-64
2023/05/15 00:31:56;;;;;;;26.63;23.35;;;;;;;15.50;61.53;101403.59;5017958;28;20030;-64
2023/05/15 00:34:21;;;;;;;26.08;23.25;;;;;;;15.50;61.69;101411.97;5031749;28;20032;-64
2023/05/15 00:36:47;;;;;;;25.52;22.85;;;;;;;15.55;61.38;101414.78;5032446;28;20167;-64
2023/05/15 00:39:12;;;;;;;26.38;23.00;;;;;;;15.47;61.51;101403.00;5019785;28;20029;-64
2023/05/15 00:41:40;;;;;;;28.70;24.35;;;;;;;15.50;61.26;101409.19;5010830;28;20082;-64
2023/05/15 00:44:08;;;;;;;27.85;23.92;;;;;;;15.39;61.36;101403.53;5025620;28;20053;-64
2023/05/15 00:46:35;;;;;;;28.13;23.77;;;;;;;15.43;61.48;101398.22;5011526;28;20038;-64
2023/05/15 00:49:03;;;;;;;32.22;24.75;;;;;;;15.31;61.53;101411.59;5011794;28;20033;-64
2023/05/15 00:51:28;;;;;;;26.83;23.77;;;;;;;15.33;61.72;101396.25;5010321;28;20038;-64
2023/05/15 00:53:55;;;;;;;28.05;24.58;;;;;;;15.37;61.44;101410.53;5011337;28;20038;-64
2023/05/15 00:56:21;;;;;;;28.20;24.92;;;;;;;15.25;61.60;101402.34;5013154;28;20056;-64
2023/05/15 00:58:48;;;;;;;28.60;25.50;;;;;;;15.17;61.80;101402.88;5027737;28;20487;-64
2023/05/15 01:01:15;;;;;;;26.98;24.17;;;;;;;15.25;61.85;101398.69;5031077;28;20046;-64
2023/05/15 01:03:42;;;;;;;28.63;25.25;;;;;;;15.15;61.83;101397.53;5030203;28;20037;-64
2023/05/15 01:06:07;;;;;;;28.75;25.60;;;;;;;15.13;61.35;101399.75;5011372;28;20037;-64
2023/05/15 01:08:42;;;;;;;28.25;24.73;;;;;;;15.23;61.64;101398.97;5026629;28;20025;-65
2023/05/15 01:11:09;;;;;;;28.55;24.63;;;;;;;15.18;61.32;101397.00;5020054;28;20543;-65
2023/05/15 01:13:34;;;;;;;31.40;25.95;;;;;;;15.12;61.52;101386.03;5018675;28;20029;-64
2023/05/15 01:15:59;;;;;;;28.98;25.83;;;;;;;15.09;61.27;101392.16;5026981;28;20497;-64
2023/05/15 01:18:31;;;;;;;30.38;26.48;;;;;;;15.06;61.58;101389.94;5021324;28;20041;-64
2023/05/15 01:21:05;;;;;;;30.20;26.98;;;;;;;15.05;61.68;101386.28;5011164;28;20042;-65
2023/05/15 01:23:33;;;;;;;29.38;26.25;;;;;;;14.91;61.83;101399.06;5009516;28;20033;-64
2023/05/15 01:26:18;;;;;;;32.85;26.13;;;;;;;14.99;61.74;101387.38;5017493;28;20065;-64
2023/05/15 01:29:07;;;;;;;30.25;26.80;;;;;;;15.03;61.90;101382.06;5021959;28;20022;-64
2023/05/15 01:31:34;;;;;;;29.65;26.40;;;;;;;14.94;61.87;101384.53;5012182;28;20440;-65
2023/05/15 01:34:05;;;;;;;33.03;27.42;;;;;;;14.85;62.14;101378.59;5011409;28;20497;-64
2023/05/15 01:36:59;;;;;;;32.28;25.80;;;;;;;14.98;61.84;101382.88;5011167;28;20105;-64
2023/05/15 01:39:27;;;;;;;36.53;26.05;;;;;;;14.83;61.92;101383.63;5018562;28;20402;-64
2023/05/15 01:42:14;;;;;;;31.90;27.20;;;;;;;14.93;61.99;101377.25;5027249;28;20048;-64
2023/05/15 01:44:45;;;;;;;32.25;26.63;;;;;;;14.78;62.19;101374.38;5009946;28;20776;-64
2023/05/15 01:47:16;;;;;;;31.52;27.98;;;;;;;14.74;62.23;101382.44;5010112;28;20070;-64
2023/05/15 01:49:44;;;;;;;28.85;25.42;;;;;;;14.82;62.01;101379.16;5016864;28;20041;-64
2023/05/15 01:52:21;;;;;;;31.38;27.48;;;;;;;14.82;61.92;101376.34;5009659;28;20105;-63
2023/05/15 01:54:48;;;;;;;30.67;27.52;;;;;;;14.79;62.12;101362.06;5010797;28;20032;-65
2023/05/15 01:57:15;;;;;;;33.83;28.65;;;;;;;14.69;62.33;101363.66;5014609;28;20030;-64
2023/05/15 01:59:41;;;;;;;31.38;26.75;;;;;;;14.71;62.28;101369.00;5013699;28;20041;-64
2023/05/15 02:02:09;;;;;;;31.75;27.10;;;;;;;14.65;62.54;101370.91;5009962;28;20041;-65
2023/05/15 02:04:36;;;;;;;33.00;27.63;;;;;;;14.67;62.17;101365.91;5014213;28;20037;-64
2023/05/15 02:07:03;;;;;;;34.05;27.73;;;;;;;14.65;62.41;101362.53;5016632;28;20029;-64
2023/05/15 02:09:29;;;;;;;32.42;28.33;;;;;;;14.61;62.46;101366.13;5026230;28;20029;-65
2023/05/15 02:11:56;;;;;;;35.80;27.63;;;;;;;14.63;62.29;101361.97;5030096;28;20561;-64
2023/05/15 02:14:23;;;;;;;34.28;28.23;;;;;;;14.62;62.59;101365.88;5030089;28;20108;-64
2023/05/15 02:16:49;;;;;;;32.40;28.88;;;;;;;14.60;62.63;101362.50;5013916;28;20036;-64
2023/05/15 02:19:14;;;;;;;34.53;27.65;;;;;;;14.59;62.30;101371.16;5011219;28;20025;-64
2023/05/15 02:21:39;;;;;;;32.35;28.20;;;;;;;14.62;62.30;101371.47;5028029;28;20037;-64
2023/05/15 02:24:05;;;;;;;35.60;28.48;;;;;;;14.58;62.58;101361.06;5010514;28;20042;-64
2023/05/15 02:26:44;;;;;;;34.38;29.00;;;;;;;14.52;62.62;101368.56;5018897;28;20048;-65
2023/05/15 02:29:35;;;;;;;37.78;29.48;;;;;;;14.58;62.47;101358.28;5024323;28;20037;-64
2023/05/15 02:32:04;;;;;;;36.42;29.92;;;;;;;14.41;62.65;101364.81;4999841;28;20848;-65
2023/05/15 02:34:43;;;;;;;35.05;29.70;;;;;;;14.41;62.91;101367.59;5019789;28;20038;-65
2023/05/15 02:37:13;;;;;;;36.28;30.17;;;;;;;14.41;62.89;101376.00;5024816;28;20045;-64
2023/05/15 02:39:41;;;;;;;36.40;30.98;;;;;;;14.43;63.08;101381.31;5018946;28;20084;-64
2023/05/15 02:42:08;;;;;;;38.38;30.55;;;;;;;14.33;63.32;101382.06;5014188;28;20103;-64
2023/05/15 02:44:36;;;;;;;40.28;30.80;;;;;;;14.29;62.99;101382.88;5012762;28;20118;-65
2023/05/15 02:47:03;;;;;;;38.92;31.98;;;;;;;14.28;63.33;101384.81;5016188;28;20786;-64
2023/05/15 02:49:28;;;;;;;41.55;32.40;;;;;;;14.21;63.31;101381.41;5024190;28;20034;-64
2023/05/15 02:51:54;;;;;;;36.08;31.10;;;;;;;14.19;63.29;101378.03;5027112;28;20025;-65
2023/05/15 02:54:19;;;;;;;39.70;30.77;;;;;;;14.24;63.65;101389.25;5034086;28;20055;-64
2023/05/15 02:56:45;;;;;;;41.75;32.42;;;;;;;14.20;63.51;101374.97;5010972;28;20471;-65
2023/05/15 02:59:10;;;;;;;37.70;31.15;;;;;;;14.30;62.95;101374.22;5011534;28;20404;-64
2023/05/15 03:01:35;;;;;;;39.67;33.60;;;;;;;14.21;63.36;101376.66;5012658;28;20084;-64
2023/05/15 03:04:01;;;;;;;43.33;33.00;;;;;;;14.26;63.42;101367.47;5013914;28;20030;-64
2023/05/15 03:06:26;;;;;;;43.60;34.47;;;;;;;14.20;63.25;101371.34;5012876;28;20025;-65
2023/05/15 03:08:51;;;;;;;42.95;34.15;;;;;;;14.20;63.28;101368.56;5015219;28;20439;-64
2023/05/15 03:11:18;;;;;;;39.53;34.17;;;;;;;14.22;63.23;101364.38;5028478;28;20358;-64
2023/05/15 03:13:43;;;;;;;40.92;34.95;;;;;;;14.20;63.32;101369.38;5015717;28;20089;-64
2023/05/15 03:16:08;;;;;;;42.45;34.17;;;;;;;14.23;63.37;101373.59;5020262;28;20568;-64
2023/05/15 03:18:33;;;;;;;40.80;34.78;;;;;;;14.23;62.93;101360.50;5033490;28;20032;-64
2023/05/15 03:20:59;;;;;;;40.33;33.85;;;;;;;14.19;63.38;101366.88;5032807;28;20037;-64
2023/05/15 03:23:24;;;;;;;42.15;35.35;;;;;;;14.07;63.47;101360.59;5029629;28;20036;-64
2023/05/15 03:25:50;;;;;;;43.75;36.15;;;;;;;14.15;63.53;101360.13;5015657;28;20040;-64
2023/05/15 03:28:15;;;;;;;48.72;36.50;;;;;;;14.12;63.21;101363.44;5013103;28;20028;-64
2023/05/15 03:30:43;;;;;;;43.22;36.13;;;;;;;14.13;63.13;101363.16;5013249;28;20025;-64
2023/05/15 03:33:08;;;;;;;46.30;36.22;;;;;;;14.05;63.33;101351.66;5016582;28;20040;-64
2023/05/15 03:35:34;;;;;;;43.50;36.85;;;;;;;13.99;63.75;101351.59;5011152;28;20022;-64
2023/05/15 03:38:00;;;;;;;46.15;36.42;;;;;;;13.87;63.54;101352.84;5013312;28;20577;-64
2023/05/15 03:40:25;;;;;;;46.35;37.25;;;;;;;13.89;64.25;101348.69;5013044;28;20026;-64
2023/05/15 03:42:52;;;;;;;50.28;36.97;;;;;;;13.87;63.95;101344.47;5012886;28;20034;-64
2023/05/15 03:45:17;;;;;;;45.03;35.53;;;;;;;13.86;63.77;101340.84;5013562;28;20025;-64
2023/05/15 03:47:43;;;;;;;44.08;36.90;;;;;;;13.84;63.50;101350.59;5012334;28;20433;-65
2023/05/15 03:50:08;;;;;;;48.45;38.05;;;;;;;13.82;63.60;101345.28;5029928;28;20025;-64
2023/05/15 03:52:34;;;;;;;46.80;37.25;;;;;;;13.84;63.95;101345.88;5012619;28;20078;-64
2023/05/15 03:55:00;;;;;;;47.75;37.42;;;;;;;13.74;63.73;101342.97;5023689;28;20495;-64
2023/05/15 03:57:26;;;;;;;48.38;37.25;;;;;;;13.68;64.10;101335.66;5014507;28;20441;-65
2023/05/15 03:59:51;;;;;;;49.33;37.90;;;;;;;13.77;64.01;101348.03;5012977;28;20037;-64
2023/05/15 04:02:16;;;;;;;47.72;37.80;;;;;;;13.71;64.04;101349.91;5022116;28;20124;-64
2023/05/15 04:04:43;;;;;;;46.97;37.58;;;;;;;13.69;63.99;101345.69;5022579;28;20029;-65
2023/05/15 04:07:08;;;;;;;47.63;38.13;;;;;;;13.65;64.31;101345.38;5017881;28;20046;-64
2023/05/15 04:09:34;;;;;;;51.72;39.17;;;;;;;13.67;64.29;101339.53;5011672;28;20022;-65
2023/05/15 04:11:59;;;;;;;46.28;37.28;;;;;;;13.64;64.02;101346.50;5012448;28;20425;-64
2023/05/15 04:14:24;;;;;;;49.33;39.90;;;;;;;13.66;63.75;101343.44;5012233;28;20133;-65
2023/05/15 04:16:49;;;;;;;50.97;37.97;;;;;;;13.69;64.23;101334.53;5011796;28;20080;-64
2023/05/15 04:19:15;;;;;;;48.92;39.03;;;;;;;13.68;64.06;101344.88;5012188;28;20421;-64
2023/05/15 04:21:40;;;;;;;50.13;39.78;;;;;;;13.66;64.19;101341.47;5017418;28;20065;-65
2023/05/15 04:24:06;;;;;;;49.33;39.25;;;;;;;13.67;63.93;101345.94;5011329;28;20829;-64
2023/05/15 04:26:32;;;;;;;51.20;38.28;;;;;;;13.62;64.05;101345.06;5013834;28;20393;-64
2023/05/15 04:28:58;;;;;;;49.83;39.90;;;;;;;13.56;64.46;101346.09;5014068;28;20030;-65
2023/05/15 04:31:24;;;;;;;51.83;39.83;;;;;;;13.55;64.22;101344.41;5012074;28;20033;-64
2023/05/15 04:33:50;;;;;;;50.95;40.05;;;;;;;13.44;64.78;101349.88;5013642;28;20065;-64
2023/05/15 04:36:15;;;;;;;50.22;39.85;;;;;;;13.42;65.06;101354.03;5030380;28;20057;-65
2023/05/15 04:38:40;;;;;;;49.25;39.88;;;;;;;13.46;64.57;101353.25;5030351;28;20520;-64
2023/05/15 04:41:05;;;;;;;52.85;39.05;;;;;;;13.42;64.81;101365.19;5024938;28;20029;-64
2023/05/15 04:43:31;;;;;;;49.72;39.60;;;;;;;13.50;65.16;101368.34;5029635;28;20065;-64
2023/05/15 04:45:56;;;;;;;49.95;38.20;;;;;;;13.54;65.33;101368.66;5026873;28;20030;-64
2023/05/15 04:48:21;;;;;;;51.45;39.92;;;;;;;13.59;64.82;101373.47;5010824;28;20026;-64
2023/05/15 04:50:47;;;;;;;49.13;38.60;;;;;;;13.63;64.86;101380.22;5011867;28;20037;-64
2023/05/15 04:53:13;;;;;;;52.80;40.88;;;;;;;13.64;65.32;101371.59;5011062;28;20390;-65
2023/05/15 04:55:38;;;;;;;52.90;39.85;;;;;;;13.62;65.68;101375.75;5012358;28;20041;-64
2023/05/15 04:58:03;;;;;;;53.05;41.00;;;;;;;13.57;66.06;101381.25;5009472;28;20034;-64
2023/05/15 05:00:29;;;;;;;54.45;40.38;;;;;;;13.62;65.88;101375.75;5021811;28;20033;-65
2023/05/15 05:02:55;;;;;;;54.83;41.45;;;;;;;13.70;65.98;101372.47;5010759;28;20633;-64
2023/05/15 05:05:20;;;;;;;56.08;41.75;;;;;;;13.58;66.27;101381.00;5011268;28;20030;-65
2023/05/15 05:07:46;;;;;;;55.75;43.00;;;;;;;13.66;65.88;101377.75;5011828;28;20377;-64
2023/05/15 05:10:11;;;;;;;58.38;40.58;;;;;;;13.65;66.11;101370.47;5023518;28;20079;-64
2023/05/15 05:12:36;;;;;;;53.80;40.90;;;;;;;13.61;66.09;101377.69;5010512;28;20030;-64
2023/05/15 05:15:02;;;;;;;53.63;38.40;;;;;;;13.66;66.15;101382.47;5011505;28;20128;-64
2023/05/15 05:17:28;;;;;;;52.30;38.40;;;;;;;13.59;65.92;101390.19;5016237;28;20374;-64
2023/05/15 05:19:53;;;;;;;50.10;38.80;;;;;;;13.63;65.99;101385.78;5011511;28;20040;-64
2023/05/15 05:22:19;;;;;;;51.03;36.85;;;;;;;13.67;65.91;101389.75;5016185;28;20033;-64
2023/05/15 05:24:44;;;;;;;53.50;38.30;;;;;;;13.58;66.12;101391.31;5011711;28;20042;-64
2023/05/15 05:27:09;;;;;;;52.95;38.00;;;;;;;13.67;65.61;101389.75;5026359;28;20064;-63
2023/05/15 05:29:35;;;;;;;54.08;39.33;;;;;;;13.57;66.37;101393.25;5025252;28;20041;-64
2023/05/15 05:32:00;;;;;;;55.78;40.00;;;;;;;13.59;66.55;101401.34;5014074;28;20037;-64
2023/05/15 05:34:25;;;;;;;56.30;40.22;;;;;;;13.61;66.23;101401.94;5007704;28;20067;-63
2023/05/15 05:36:51;;;;;;;47.67;34.75;;;;;;;13.64;65.67;101407.84;5012349;28;20034;-63
2023/05/15 05:39:16;;;;;;;53.05;36.70;;;;;;;13.61;65.52;101399.16;5023789;28;20473;-64
2023/05/15 05:41:42;;;;;;;48.80;35.90;;;;;;;13.69;65.46;101412.66;5012997;28;20088;-64
2023/05/15 05:44:08;;;;;;;53.33;36.67;;;;;;;13.61;65.94;101408.38;5022172;28;20029;-64
2023/05/15 05:46:33;;;;;;;49.70;36.53;;;;;;;13.68;65.70;101416.56;5015761;28;20048;-64
2023/05/15 05:48:59;;;;;;;49.55;36.15;;;;;;;13.68;65.35;101422.13;5011055;28;20049;-64
2023/05/15 05:51:24;;;;;;;47.80;35.78;;;;;;;13.67;65.38;101412.06;5012540;28;20529;-64
2023/05/15 05:53:49;;;;;;;48.85;35.25;;;;;;;13.73;65.35;101408.25;5014930;28;20025;-64
2023/05/15 05:56:15;;;;;;;48.42;35.40;;;;;;;13.74;64.82;101410.75;5026970;28;20034;-64
2023/05/15 05:58:40;;;;;;;46.80;35.22;;;;;;;13.75;65.29;101408.81;5026938;28;20087;-64
2023/05/15 06:01:05;;;;;;;51.67;34.60;;;;;;;13.71;65.93;101402.06;5028435;28;20079;-64
2023/05/15 06:03:31;;;;;;;44.80;33.78;;;;;;;13.69;65.28;101413.50;5020176;28;20037;-64
2023/05/15 06:05:56;;;;;;;42.40;32.75;;;;;;;13.79;64.65;101412.75;5018821;28;20148;-64
2023/05/15 06:08:21;;;;;;;40.25;31.92;;;;;;;13.78;64.43;101405.50;5017270;28;20045;-64
2023/05/15 06:10:47;;;;;;;40.63;30.55;;;;;;;13.78;64.28;101407.44;5010985;28;20069;-64
2023/05/15 06:13:16;;;;;;;37.97;31.05;;;;;;;13.80;63.84;101402.47;5014805;28;20071;-64
2023/05/15 06:15:42;;;;;;;37.83;30.80;;;;;;;13.84;63.99;101414.78;5013290;28;20052;-64
2023/05/15 06:18:07;;;;;;;38.33;29.83;;;;;;;13.83;63.80;101413.06;5011221;28;20029;-64
2023/05/15 06:20:32;;;;;;;39.83;30.98;;;;;;;13.88;63.79;101413.16;5010397;28;20481;-64
2023/05/15 06:22:58;;;;;;;36.28;30.17;;;;;;;13.87;62.92;101412.31;5018064;28;20045;-65
2023/05/15 06:25:23;;;;;;;34.33;28.98;;;;;;;13.89;63.33;101420.41;5016447;28;20018;-65
2023/05/15 06:27:49;;;;;;;33.35;28.75;;;;;;;13.89;63.68;101414.84;5014421;28;20034;-65
2023/05/15 06:30:14;;;;;;;37.28;29.63;;;;;;;13.96;63.38;101415.47;5016235;28;20044;-65
2023/05/15 06:32:40;;;;;;;33.72;30.02;;;;;;;13.96;63.33;101415.47;5020073;28;20038;-65
2023/05/15 06:35:06;;;;;;;34.00;29.42;;;;;;;13.95;63.46;101406.28;5014778;28;20026;-66
2023/05/15 06:37:32;;;;;;;33.60;29.05;;;;;;;14.10;63.43;101419.53;5016185;28;20502;-65
2023/05/15 06:39:57;;;;;;;31.80;28.10;;;;;;;14.23;63.09;101409.91;5018135;28;20112;-65
2023/05/15 06:42:22;;;;;;;32.78;28.58;;;;;;;14.31;62.58;101401.06;5025000;28;20133;-65
2023/05/15 06:44:48;;;;;;;38.72;29.55;;;;;;;14.38;62.51;101410.06;5009266;28;20056;-64
2023/05/15 06:47:14;;;;;;;35.00;28.63;;;;;;;14.44;62.19;101400.59;5013949;28;20088;-65
2023/05/15 06:49:39;;;;;;;32.65;27.92;;;;;;;14.61;62.77;101408.03;5013984;28;20117;-64
2023/05/15 06:52:05;;;;;;;45.03;22.67;;;;;;;14.91;71.38;101405.47;5018019;28;20033;-65
2023/05/15 06:54:30;;;;;;;36.20;29.15;;;;;;;14.78;62.00;101405.13;5017288;28;20070;-65
2023/05/15 06:56:55;;;;;;;36.88;29.88;;;;;;;14.66;61.63;101405.31;5009393;28;20037;-65
2023/05/15 06:59:21;;;;;;;34.20;30.10;;;;;;;14.61;61.55;101411.66;5007522;28;20026;-65
2023/05/15 07:01:46;;;;;;;33.05;29.45;;;;;;;14.52;61.45;101404.88;5004456;28;20481;-65
2023/05/15 07:04:11;;;;;;;32.13;28.55;;;;;;;14.60;61.44;101406.34;5021948;28;20500;-65
2023/05/15 07:06:37;;;;;;;34.95;27.83;;;;;;;14.64;61.52;101404.72;5016193;28;20021;-64
2023/05/15 07:09:03;;;;;;;38.22;29.23;;;;;;;14.80;61.26;101405.66;5015572;28;20374;-64
2023/05/15 07:11:28;;;;;;;33.03;28.70;;;;;;;14.81;60.96;101407.34;5016979;28;20048;-65
2023/05/15 07:13:54;;;;;;;29.83;26.63;;;;;;;14.86;60.88;101405.44;5025073;28;20025;-65
2023/05/15 07:16:19;;;;;;;33.72;28.10;;;;;;;14.94;60.34;101404.94;5014650;28;20081;-64
2023/05/15 07:18:45;;;;;;;33.88;29.00;;;;;;;15.00;60.07;101407.78;5006050;28;20037;-65
2023/05/15 07:21:10;;;;;;;34.00;28.63;;;;;;;15.07;59.77;101408.38;5009690;28;20509;-65
2023/05/15 07:23:35;;;;;;;33.63;27.65;;;;;;;15.20;59.74;101408.72;5012384;28;20370;-62
2023/05/15 07:26:01;;;;;;;37.05;31.73;;;;;;;15.22;59.96;101402.88;5024914;28;20725;-62
2023/05/15 07:28:26;;;;;;;34.28;29.92;;;;;;;15.30;59.74;101405.16;5022534;28;20473;-63
2023/05/15 07:30:51;;;;;;;36.88;32.40;;;;;;;15.43;59.49;101404.66;5018365;28;20036;-63
2023/05/15 07:33:17;;;;;;;40.03;31.77;;;;;;;15.55;59.51;101398.84;5031815;28;20041;-62
2023/05/15 07:35:42;;;;;;;35.33;30.73;;;;;;;15.65;58.79;101396.13;5014137;28;20624;-63
2023/05/15 07:38:08;;;;;;;36.92;32.13;;;;;;;15.68;58.39;101397.56;5018944;28;20034;-63
2023/05/15 07:40:33;;;;;;;38.95;33.80;;;;;;;15.78;58.49;101397.56;5014515;28;20116;-63
2023/05/15 07:43:04;;;;;;;39.17;32.83;;;;;;;15.88;58.42;101389.22;5021586;28;20084;-64
2023/05/15 07:45:29;;;;;;;39.53;35.22;;;;;;;15.93;58.29;101386.41;5017625;28;20059;-63
2023/05/15 07:47:55;;;;;;;40.45;35.28;;;;;;;16.08;58.18;101390.38;5024910;28;20064;-62
2023/05/15 07:50:20;;;;;;;48.78;39.83;;;;;;;16.08;58.05;101381.97;5023039;28;20029;-63
2023/05/15 07:52:45;;;;;;;43.55;38.85;;;;;;;16.17;57.92;101386.75;5014993;28;20099;-64
2023/05/15 07:55:11;;;;;;;45.33;40.38;;;;;;;16.24;57.69;101386.47;5008255;28;20040;-63
2023/05/15 07:57:37;;;;;;;45.67;39.72;;;;;;;16.29;57.51;101382.84;5027024;28;20598;-63
2023/05/15 08:00:08;;;;;;;45.92;39.35;;;;;;;16.34;57.52;101380.03;5020155;28;20036;-63
2023/05/15 08:02:34;;;;;;;49.90;40.97;;;;;;;16.23;56.70;101376.41;5011126;28;20041;-64
2023/05/15 08:04:59;;;;;;;46.15;38.58;;;;;;;16.43;57.30;101381.19;5015068;28;20034;-64
2023/05/15 08:07:25;;;;;;;45.45;39.20;;;;;;;16.48;56.96;101374.72;5011366;28;20033;-63
2023/05/15 08:09:50;;;;;;;46.00;39.03;;;;;;;16.54;56.54;101380.03;5022257;28;20032;-62
2023/05/15 08:12:19;;;;;;;45.65;40.65;;;;;;;16.57;56.54;101378.66;5016451;28;20036;-61
2023/05/15 08:14:45;;;;;;;48.58;41.33;;;;;;;16.59;56.56;101382.03;5018320;28;20125;-60
2023/05/15 08:17:12;;;;;;;48.92;41.50;;;;;;;16.62;55.93;101373.03;5014821;28;20588;-64
2023/05/15 08:19:37;;;;;;;31.92;22.23;;;;;;;17.07;64.22;101374.97;5018978;28;20112;-63
2023/05/15 08:22:03;;;;;;;31.02;24.25;;;;;;;17.30;63.34;101381.94;5017978;28;20037;-66
2023/05/15 08:24:28;;;;;;;35.72;27.05;;;;;;;17.55;62.31;101382.97;5013622;28;20441;-66
2023/05/15 08:26:54;;;;;;;45.00;37.50;;;;;;;17.60;58.46;101380.13;5011543;28;20029;-67
2023/05/15 08:29:19;;;;;;;31.30;25.67;;;;;;;17.94;60.77;101374.66;5012664;28;20084;-67
2023/05/15 08:31:44;;;;;;;36.97;29.85;;;;;;;17.92;58.18;101382.53;5019169;28;20128;-67
2023/05/15 08:34:10;;;;;;;29.75;26.17;;;;;;;18.06;59.40;101377.09;5014879;28;20045;-66
2023/05/15 08:36:35;;;;;;;35.17;31.42;;;;;;;18.10;58.23;101375.38;5024158;28;20030;-66
2023/05/15 08:39:01;;;;;;;38.20;30.42;;;;;;;18.18;58.08;101383.19;5023899;28;20186;-65
2023/05/15 08:41:46;;;;;;;38.95;31.75;;;;;;;18.12;57.52;101384.38;5011906;28;20112;-66
2023/05/15 08:44:12;;;;;;;32.95;28.70;;;;;;;18.17;57.04;101377.88;5010448;28;20152;-67
2023/05/15 08:46:37;;;;;;;39.58;34.38;;;;;;;18.04;55.06;101382.19;5018424;28;20142;-67
2023/05/15 08:49:13;;;;;;;47.70;38.53;;;;;;;17.89;54.88;101389.56;5011911;28;20033;-67
2023/05/15 08:51:38;;;;;;;38.83;32.55;;;;;;;17.89;56.34;101383.94;5007643;28;20033;-68
2023/05/15 08:54:04;;;;;;;39.50;32.55;;;;;;;17.98;56.35;101377.72;5014008;28;20042;-67
2023/05/15 08:56:29;;;;;;;40.38;33.47;;;;;;;17.96;56.53;101372.41;5009672;28;20030;-67
2023/05/15 08:58:55;;;;;;;38.78;31.90;;;;;;;18.02;56.24;101373.19;5014300;28;20030;-66
2023/05/15 09:01:21;;;;;;;36.53;31.08;;;;;;;18.17;55.91;101373.09;5016083;28;20469;-66
2023/05/15 09:03:46;;;;;;;36.67;30.25;;;;;;;18.26;55.65;101376.13;5014772;28;20033;-67
2023/05/15 09:06:12;;;;;;;40.00;35.38;;;;;;;18.29;55.30;101373.56;5015014;28;20049;-66
2023/05/15 09:08:39;;;;;;;37.42;33.50;;;;;;;18.44;55.05;101377.41;5024310;28;20029;-66
2023/05/15 09:11:06;;;;;;;36.95;31.67;;;;;;;18.51;54.24;101377.88;5019324;28;20079;-66
2023/05/15 09:13:32;;;;;;;36.17;30.75;;;;;;;18.53;54.52;101381.25;5017475;28;20099;-67
2023/05/15 09:15:59;;;;;;;40.85;34.47;;;;;;;18.44;53.39;101369.81;5014315;28;20477;-67
2023/05/15 09:18:25;;;;;;;35.63;31.38;;;;;;;18.50;54.77;101364.97;5011470;28;20401;-66
2023/05/15 09:20:51;;;;;;;34.00;28.88;;;;;;;18.52;54.71;101369.19;5010793;28;20148;-65
2023/05/15 09:23:26;;;;;;;33.40;29.55;;;;;;;18.53;54.93;101372.81;5020091;28;20108;-66
2023/05/15 09:25:54;;;;;;;43.50;34.92;;;;;;;18.33;53.38;101365.41;5011721;28;20606;-66
2023/05/15 09:28:32;;;;;;;36.88;30.00;;;;;;;18.40;54.72;101375.16;5013862;28;20108;-66
2023/05/15 09:31:02;;;;;;;34.25;29.60;;;;;;;18.39;54.52;101369.81;5013739;28;20386;-67
2023/05/15 09:33:36;;;;;;;34.05;29.75;;;;;;;18.39;54.54;101370.69;5012580;28;20018;-66
2023/05/15 09:36:04;;;;;;;39.55;30.65;;;;;;;18.28;54.56;101380.31;5018101;28;20054;-64
2023/05/15 09:38:38;;;;;;;41.38;32.47;;;;;;;18.16;54.23;101371.44;5016997;28;20025;-66
2023/05/15 09:41:06;;;;;;;33.63;29.10;;;;;;;18.24;55.19;101372.78;5018759;28;20686;-66
2023/05/15 09:43:36;;;;;;;31.05;27.20;;;;;;;18.22;55.48;101373.06;5017649;28;20168;-66
2023/05/15 09:46:03;;;;;;;37.42;30.80;;;;;;;18.14;54.71;101370.88;5013538;28;20029;-66
2023/05/15 09:48:29;;;;;;;33.70;28.20;;;;;;;18.16;55.15;101365.81;5011891;28;20030;-66
2023/05/15 09:50:55;;;;;;;33.35;29.50;;;;;;;18.12;55.02;101371.16;5009424;28;20154;-66
2023/05/15 09:53:21;;;;;;;40.50;29.75;;;;;;;18.13;55.18;101370.03;5021533;28;20481;-65
2023/05/15 09:55:47;;;;;;;36.63;27.45;;;;;;;18.13;55.27;101380.44;5019960;28;20029;-66
2023/05/15 09:58:16;;;;;;;33.55;28.83;;;;;;;18.10;55.03;101375.38;5010330;28;20033;-65
2023/05/15 10:00:43;;;;;;;38.45;32.38;;;;;;;18.01;55.42;101383.59;5007466;28;20500;-64
2023/05/15 10:03:09;;;;;;;42.88;35.05;;;;;;;17.85;55.11;101380.03;5012952;28;20029;-64
2023/05/15 10:05:35;;;;;;;35.15;29.92;;;;;;;17.90;55.44;101379.16;5023859;28;20431;-64
2023/05/15 10:08:01;;;;;;;32.35;26.35;;;;;;;17.98;55.72;101378.56;5019504;28;20033;-65
2023/05/15 10:10:28;;;;;;;33.15;27.58;;;;;;;18.02;55.95;101370.38;5009827;28;20038;-65
2023/05/15 10:12:57;;;;;;;32.83;27.77;;;;;;;18.04;55.58;101379.38;5009481;28;20564;-64
2023/05/15 10:15:23;;;;;;;31.45;26.35;;;;;;;18.07;55.21;101384.38;5013617;28;20049;-64
2023/05/15 10:17:50;;;;;;;31.25;26.50;;;;;;;18.08;55.47;101386.09;5018089;28;20044;-63
2023/05/15 10:20:16;;;;;;;36.08;30.35;;;;;;;17.93;54.89;101383.38;5014909;28;20021;-65
2023/05/15 10:22:51;;;;;;;31.50;25.33;;;;;;;18.03;55.50;101386.09;5015584;28;20037;-65
2023/05/15 10:25:44;;;;;;;33.47;27.80;;;;;;;17.95;55.53;101384.75;5011500;28;20026;-65
2023/05/15 10:28:10;;;;;;;;;;;;;;;18.01;55.71;101383.59;5012539;28;20033;-65
2023/05/15 10:30:36;;;;;;;31.90;24.75;;;;;;;18.00;55.24;101386.69;5018050;28;19920;-66
2023/05/15 10:33:06;;;;;;;26.00;23.30;;;;;;;17.99;55.86;101390.63;5008221;28;20068;-64
2023/05/15 10:35:33;;;;;;;26.98;22.80;;;;;;;18.05;56.44;101383.84;5015964;28;20038;-64
2023/05/15 10:37:59;;;;;;;38.50;29.55;;;;;;;17.93;55.77;101394.59;5012503;28;20034;-64
2023/05/15 10:40:25;;;;;;;26.95;23.80;;;;;;;17.94;56.21;101394.31;5011169;28;20087;-64
2023/05/15 10:42:53;;;;;;;30.85;26.73;;;;;;;17.83;55.69;101393.50;5004849;28;20805;-64
2023/05/15 10:45:18;;;;;;;29.05;25.73;;;;;;;17.85;55.53;101394.06;5019827;28;20358;-65
2023/05/15 10:47:44;;;;;;;25.52;22.10;;;;;;;17.90;56.48;101396.00;5015755;28;20040;-65
2023/05/15 10:50:12;;;;;;;28.15;21.90;;;;;;;17.96;56.30;101389.25;5014561;28;20035;-65
2023/05/15 10:52:38;;;;;;;28.60;25.30;;;;;;;17.89;56.14;101395.19;5021561;28;20033;-64
2023/05/15 10:55:08;;;;;;;29.40;22.70;;;;;;;17.89;55.92;101397.97;5011633;28;20044;-65
2023/05/15 10:57:34;;;;;;;25.30;22.60;;;;;;;17.90;56.38;101396.84;5017153;28;20041;-63
2023/05/15 11:00:00;;;;;;;25.55;22.92;;;;;;;17.95;56.87;101395.13;5017233;28;20026;-65
2023/05/15 11:02:28;;;;;;;26.83;21.73;;;;;;;18.02;56.60;101388.06;5022026;28;20489;-65
2023/05/15 11:04:58;;;;;;;34.05;29.17;;;;;;;17.83;55.72;101390.69;5013299;28;20022;-64
2023/05/15 11:07:24;;;;;;;24.67;21.55;;;;;;;17.98;56.48;101388.94;5030215;28;20060;-64